Time;durP1;ratioP1;P1;durP2;ratioP2;P2;SDS_P1;SDS_P2;PMS_P1;PMS_P2;Temp;Humidity;BMP_temperature;BMP_pressure;BME280_temperature;BME280_humidity;BME280_pressure;Samples;Min_cycle;Max_cycle;Signal;HPM_P1;HPM_P2
2022/04/12 00:00:50;;;;;;;2.07;1.73;;;;;;;15.62;29.56;95911.19;5026316;28;20225;-83
2022/04/12 00:03:17;;;;;;;2.23;1.90;;;;;;;15.59;29.46;95900.81;5013506;28;20202;-83
2022/04/12 00:05:44;;;;;;;3.17;1.90;;;;;;;15.58;29.60;95899.19;5026241;28;20250;-83
2022/04/12 00:08:12;;;;;;;1.97;1.73;;;;;;;15.66;29.38;95900.53;5025951;28;20236;-83
2022/04/12 00:10:40;;;;;;;3.60;2.07;;;;;;;15.59;29.19;95889.13;5030702;28;20199;-83
2022/04/12 00:13:08;;;;;;;3.83;1.90;;;;;;;15.57;29.34;95886.66;5021941;28;20218;-83
2022/04/12 00:15:35;;;;;;;5.30;2.23;;;;;;;15.61;29.34;95881.50;5041611;28;20250;-83
2022/04/12 00:20:47;;;;;;;2.20;1.93;;;;;;;15.48;29.89;95891.03;5021368;28;20210;-83
2022/04/12 00:23:15;;;;;;;2.30;2.10;;;;;;;15.30;29.79;95880.66;5025187;28;20210;-83
2022/04/12 00:25:44;;;;;;;2.27;1.63;;;;;;;15.32;30.06;95884.72;5029250;28;20210;-83
2022/04/12 00:28:12;;;;;;;2.90;1.97;;;;;;;15.33;30.46;95885.53;5025401;28;20272;-83
2022/04/12 00:30:39;;;;;;;2.33;2.00;;;;;;;15.34;30.21;95879.03;5019196;28;20217;-83
2022/04/12 00:33:07;;;;;;;3.40;1.77;;;;;;;14.75;32.17;95882.19;5022358;28;20317;-83
2022/04/12 00:35:36;;;;;;;2.97;1.80;;;;;;;14.98;30.97;95876.25;5041505;28;20208;-83
2022/04/12 00:38:13;;;;;;;2.17;1.77;;;;;;;15.04;31.26;95867.06;5018368;28;20199;-83
2022/04/12 00:40:41;;;;;;;3.03;1.83;;;;;;;15.13;29.92;95851.84;5043550;28;20229;-83
2022/04/12 00:43:09;;;;;;;2.13;1.73;;;;;;;14.79;31.89;95864.28;5025193;28;20199;-83
2022/04/12 00:45:36;;;;;;;3.10;2.00;;;;;;;14.78;32.58;95868.09;5028600;28;20209;-83
2022/04/12 00:48:03;;;;;;;2.60;1.70;;;;;;;14.97;30.66;95861.03;5024814;28;20281;-83
2022/04/12 00:50:30;;;;;;;2.80;2.00;;;;;;;15.12;30.78;95852.09;5025796;28;20209;-83
2022/04/12 00:52:58;;;;;;;2.10;1.50;;;;;;;14.27;35.29;95840.72;5024677;28;20233;-83
2022/04/12 00:55:25;;;;;;;2.33;2.03;;;;;;;14.86;30.91;95832.22;5025424;28;20213;-83
2022/04/12 00:57:54;;;;;;;2.43;1.77;;;;;;;14.75;32.83;95836.00;5042765;28;20281;-83
2022/04/12 01:00:22;;;;;;;1.47;1.30;;;;;;;14.25;34.30;95848.31;5026886;28;20198;-83
2022/04/12 01:02:49;;;;;;;2.13;1.80;;;;;;;14.52;31.75;95820.19;5025323;28;20205;-83
2022/04/12 01:05:16;;;;;;;2.33;1.70;;;;;;;14.64;32.79;95828.91;5019451;28;20237;-83
2022/04/12 01:07:44;;;;;;;2.63;1.80;;;;;;;14.71;31.43;95826.75;5032994;28;20271;-83
2022/04/12 01:10:11;;;;;;;1.90;1.73;;;;;;;14.64;32.04;95826.19;5031855;28;20527;-83
2022/04/12 01:12:39;;;;;;;1.93;1.50;;;;;;;14.38;34.16;95831.53;5025992;28;20215;-83
2022/04/12 01:15:16;;;;;;;2.93;1.60;;;;;;;13.90;35.37;95818.28;5029926;28;20249;-83
2022/04/12 01:17:43;;;;;;;1.70;1.57;;;;;;;13.92;35.65;95822.38;5019285;28;20210;-83
2022/04/12 01:20:12;;;;;;;3.33;1.50;;;;;;;13.95;35.08;95826.47;5022537;28;20203;-83
2022/04/12 01:22:49;;;;;;;2.37;1.50;;;;;;;14.09;34.35;95830.31;5024413;28;20294;-83
2022/04/12 01:25:18;;;;;;;2.00;1.57;;;;;;;14.02;35.27;95829.75;5023873;28;20206;-83
2022/04/12 01:27:45;;;;;;;1.40;1.27;;;;;;;14.15;34.42;95815.69;5024455;28;20195;-83
2022/04/12 01:30:13;;;;;;;1.63;1.20;;;;;;;13.99;35.37;95816.69;5014883;28;20203;-83
2022/04/12 01:32:41;;;;;;;2.03;1.70;;;;;;;14.01;33.83;95815.38;5018091;28;20234;-83
2022/04/12 01:35:09;;;;;;;3.47;1.60;;;;;;;14.00;35.09;95831.91;5028766;28;20206;-83
2022/04/12 01:37:36;;;;;;;2.17;1.50;;;;;;;13.83;35.25;95839.41;5018830;28;20199;-83
2022/04/12 01:40:05;;;;;;;2.43;1.57;;;;;;;13.81;34.29;95830.72;5039785;28;20234;-83
2022/04/12 01:42:33;;;;;;;1.30;1.20;;;;;;;13.76;35.40;95830.69;5025128;28;20218;-83
2022/04/12 01:45:01;;;;;;;2.50;1.40;;;;;;;13.63;37.43;95845.53;5019861;28;20217;-83
2022/04/12 01:47:28;;;;;;;4.60;1.60;;;;;;;13.44;36.77;95828.84;5020588;28;20201;-83
2022/04/12 01:49:55;;;;;;;1.57;1.27;;;;;;;13.41;37.67;95829.38;5024264;28;20210;-83
2022/04/12 01:52:22;;;;;;;3.77;1.20;;;;;;;13.30;38.88;95835.81;5017564;28;20223;-83
2022/04/12 01:54:49;;;;;;;1.73;1.40;;;;;;;13.18;38.66;95822.41;5026171;28;20218;-83
2022/04/12 01:57:16;;;;;;;1.73;1.40;;;;;;;13.16;38.69;95843.56;5024132;28;20206;-83
2022/04/12 01:59:45;;;;;;;2.93;1.40;;;;;;;13.08;39.92;95837.78;5042964;28;20220;-83
2022/04/12 02:02:12;;;;;;;2.93;1.57;;;;;;;12.84;41.96;95840.78;5020934;28;20268;-83
2022/04/12 02:04:39;;;;;;;2.27;1.60;;;;;;;12.42;43.83;95846.06;5025269;28;20202;-83
2022/04/12 02:07:07;;;;;;;2.13;1.70;;;;;;;12.10;46.32;95840.53;5012139;28;20198;-83
2022/04/12 02:09:34;;;;;;;1.73;1.60;;;;;;;11.81;47.48;95839.09;5024887;28;20265;-83
2022/04/12 02:12:02;;;;;;;1.97;1.50;;;;;;;11.45;49.46;95847.72;5022785;28;20261;-83
2022/04/12 02:14:29;;;;;;;3.77;1.50;;;;;;;10.99;51.12;95858.63;5022133;28;20294;-83
2022/04/12 02:16:57;;;;;;;2.10;1.23;;;;;;;10.82;52.00;95851.56;5019507;28;20272;-83
2022/04/12 02:19:24;;;;;;;2.10;1.47;;;;;;;10.77;52.43;95862.28;5020509;28;20210;-83
2022/04/12 02:21:52;;;;;;;5.03;1.80;;;;;;;10.71;53.07;95857.88;5026343;28;20218;-83
2022/04/12 02:24:19;;;;;;;2.87;1.77;;;;;;;10.68;53.57;95867.28;5027152;28;20194;-83
2022/04/12 02:26:46;;;;;;;4.03;1.90;;;;;;;10.68;53.25;95869.16;5030378;28;20206;-83
2022/04/12 02:29:13;;;;;;;4.43;1.40;;;;;;;10.63;53.37;95870.69;5024880;28;20259;-83
2022/04/12 02:31:41;;;;;;;2.27;1.33;;;;;;;10.59;53.79;95864.16;5020972;28;20210;-83
2022/04/12 02:34:10;;;;;;;1.80;1.40;;;;;;;10.61;55.06;95867.44;5025536;28;20284;-83
2022/04/12 02:36:37;;;;;;;2.80;1.60;;;;;;;10.55;55.37;95867.56;5026334;28;20210;-83
2022/04/12 02:39:05;;;;;;;3.63;1.80;;;;;;;10.54;56.14;95868.63;5021189;28;20203;-83
2022/04/12 02:41:32;;;;;;;2.27;1.40;;;;;;;10.46;56.93;95852.84;5018495;28;20225;-83
2022/04/12 02:43:59;;;;;;;3.43;1.80;;;;;;;10.39;57.16;95860.22;5023895;28;20203;-83
2022/04/12 02:46:26;;;;;;;3.37;1.83;;;;;;;10.33;57.95;95859.31;5027957;28;20211;-83
2022/04/12 02:48:53;;;;;;;2.80;1.40;;;;;;;10.18;59.68;95869.81;5024881;28;20220;-83
2022/04/12 02:51:22;;;;;;;3.93;1.63;;;;;;;10.15;59.73;95871.06;5024815;28;20247;-83
2022/04/12 02:53:49;;;;;;;4.33;1.60;;;;;;;10.11;60.27;95874.50;5017902;28;20230;-83
2022/04/12 02:56:16;;;;;;;2.93;1.47;;;;;;;10.04;60.31;95860.31;5016907;28;20289;-83
2022/04/12 02:58:43;;;;;;;2.07;1.43;;;;;;;10.05;60.89;95870.88;5018488;28;20205;-83
2022/04/12 03:01:10;;;;;;;2.37;1.67;;;;;;;10.07;61.25;95876.03;5024337;28;20210;-83
2022/04/12 03:03:37;;;;;;;4.47;1.67;;;;;;;9.92;61.78;95881.09;5028921;28;20249;-83
2022/04/12 03:06:05;;;;;;;3.33;1.60;;;;;;;9.86;62.58;95872.91;5019633;28;20210;-83
2022/04/12 03:08:33;;;;;;;3.03;1.50;;;;;;;9.82;62.80;95874.44;5029834;28;20291;-83
2022/04/12 03:11:00;;;;;;;2.90;1.60;;;;;;;9.76;63.64;95880.78;5021750;28;20209;-83
2022/04/12 03:13:27;;;;;;;2.10;1.60;;;;;;;9.69;64.16;95882.78;5043094;28;20198;-83
2022/04/12 03:15:54;;;;;;;1.30;1.20;;;;;;;9.62;63.72;95879.38;5026814;28;20330;-83
2022/04/12 03:18:21;;;;;;;3.77;1.47;;;;;;;9.62;63.89;95873.16;5025984;28;20252;-83
2022/04/12 03:20:51;;;;;;;1.93;1.50;;;;;;;9.62;64.34;95876.69;5019740;28;20213;-83
2022/04/12 03:23:19;;;;;;;3.23;1.53;;;;;;;9.54;64.10;95879.72;5018156;28;20209;-83
2022/04/12 03:25:50;;;;;;;3.00;1.67;;;;;;;9.56;64.52;95891.09;5023235;28;20206;-83
2022/04/12 03:28:17;;;;;;;2.83;1.60;;;;;;;9.55;64.93;95894.84;5023432;28;20206;-83
2022/04/12 03:30:44;;;;;;;1.60;1.40;;;;;;;9.55;65.63;95892.16;5027984;28;20194;-83
2022/04/12 03:33:11;;;;;;;2.87;1.77;;;;;;;9.52;65.25;95889.13;5024084;28;20226;-83
2022/04/12 03:35:38;;;;;;;2.57;1.40;;;;;;;9.38;66.36;95885.81;5028203;28;20292;-83
2022/04/12 03:38:05;;;;;;;3.47;1.57;;;;;;;9.35;65.98;95894.41;5025553;28;20210;-83
2022/04/12 03:40:33;;;;;;;2.33;1.53;;;;;;;9.17;67.55;95886.41;5023127;28;20225;-83
2022/04/12 03:43:04;;;;;;;1.73;1.40;;;;;;;9.07;68.70;95893.19;5025143;28;20218;-83
2022/04/12 03:45:32;;;;;;;2.97;1.70;;;;;;;8.97;68.68;95886.72;5035802;28;20199;-83
2022/04/12 03:47:59;;;;;;;2.97;1.60;;;;;;;9.00;69.25;95891.66;5020711;28;20210;-83
2022/04/12 03:50:27;;;;;;;2.03;1.50;;;;;;;9.00;68.78;95886.28;5019107;28;20241;-83
2022/04/12 03:52:55;;;;;;;2.97;1.70;;;;;;;9.10;69.34;95900.78;5011630;28;20215;-83
2022/04/12 03:55:31;;;;;;;2.57;1.60;;;;;;;9.08;69.02;95889.44;5019042;28;20339;-83
2022/04/12 03:57:59;;;;;;;2.87;1.67;;;;;;;9.15;69.85;95888.50;5021111;28;20244;-83
2022/04/12 04:00:28;;;;;;;2.00;1.33;;;;;;;8.97;70.61;95884.03;5030681;28;20202;-83
2022/04/12 04:02:56;;;;;;;4.80;1.90;;;;;;;8.86;70.55;95882.13;5021210;28;20272;-84
2022/04/12 04:05:23;;;;;;;3.93;1.80;;;;;;;8.81;71.56;95880.13;5019222;28;20203;-83
2022/04/12 04:07:51;;;;;;;2.30;1.90;;;;;;;8.73;71.87;95883.97;5025222;28;20203;-84
2022/04/12 04:10:18;;;;;;;3.27;1.70;;;;;;;8.65;72.65;95884.31;5025162;28;20545;-83
2022/04/12 04:12:45;;;;;;;4.07;2.77;;;;;;;8.56;72.99;95874.91;5024642;28;20210;-83
2022/04/12 04:15:14;;;;;;;3.63;2.40;;;;;;;8.51;73.57;95873.94;5020934;28;20325;-82
2022/04/12 04:17:43;;;;;;;3.17;1.87;;;;;;;8.50;74.15;95888.47;5025013;28;20229;-84
2022/04/12 04:20:12;;;;;;;5.67;3.40;;;;;;;8.46;74.83;95877.34;5024842;28;20305;-84
2022/04/12 04:22:40;;;;;;;3.13;2.10;;;;;;;8.43;75.33;95879.66;5024540;28;20217;-83
2022/04/12 04:25:09;;;;;;;4.90;2.23;;;;;;;8.47;75.21;95880.84;5028368;28;20207;-83
2022/04/12 04:27:36;;;;;;;4.00;2.50;;;;;;;8.50;75.05;95878.53;5018513;28;20301;-84
2022/04/12 04:30:05;;;;;;;2.73;1.83;;;;;;;8.47;75.90;95875.47;5021492;28;20290;-84
2022/04/12 04:32:32;;;;;;;2.10;1.80;;;;;;;8.43;76.65;95879.66;5025142;28;20214;-84
2022/04/12 04:35:01;;;;;;;2.47;1.67;;;;;;;8.35;75.64;95872.72;5022296;28;20218;-84
2022/04/12 04:37:28;;;;;;;2.00;1.80;;;;;;;8.33;77.06;95864.91;5023229;28;20206;-83
2022/04/12 04:39:55;;;;;;;3.73;1.67;;;;;;;8.32;77.01;95863.25;5026145;28;20283;-84
2022/04/12 04:42:23;;;;;;;3.17;1.90;;;;;;;8.23;76.78;95867.28;5023921;28;20230;-84
2022/04/12 04:44:50;;;;;;;2.33;1.63;;;;;;;8.25;77.50;95864.38;5025155;28;20202;-84
2022/04/12 04:47:18;;;;;;;4.77;1.77;;;;;;;8.16;78.86;95869.25;5033386;28;20214;-83
2022/04/12 04:49:45;;;;;;;4.47;2.40;;;;;;;8.12;78.30;95870.72;5024247;28;20300;-84
2022/04/12 04:52:13;;;;;;;2.60;1.77;;;;;;;8.05;79.31;95859.22;5026039;28;20238;-85
2022/04/12 04:54:40;;;;;;;1.90;1.53;;;;;;;8.09;80.27;95864.97;5028215;28;20226;-84
2022/04/12 04:57:07;;;;;;;2.77;2.00;;;;;;;8.05;79.93;95867.31;5020615;28;20277;-84
2022/04/12 04:59:34;;;;;;;2.23;1.60;;;;;;;8.08;80.37;95866.81;5026627;28;20213;-84
2022/04/12 05:02:02;;;;;;;2.77;1.90;;;;;;;8.05;80.12;95859.22;5021586;28;20595;-83
2022/04/12 05:04:28;;;;;;;4.10;1.90;;;;;;;8.14;80.66;95860.56;5027212;28;20203;-83
2022/04/12 05:06:56;;;;;;;2.33;1.67;;;;;;;8.07;80.13;95859.00;5020276;28;20206;-85
2022/04/12 05:09:24;;;;;;;2.07;1.87;;;;;;;7.94;81.39;95857.28;5024040;28;20238;-84
2022/04/12 05:11:51;;;;;;;4.70;2.33;;;;;;;7.98;81.23;95866.56;5024530;28;20222;-84
2022/04/12 05:14:19;;;;;;;3.13;2.53;;;;;;;7.96;80.74;95861.41;5023126;28;20241;-84
2022/04/12 05:16:46;;;;;;;3.37;2.10;;;;;;;8.01;81.30;95865.28;5055331;28;20312;-84
2022/04/12 05:19:13;;;;;;;6.33;1.60;;;;;;;8.01;81.33;95855.34;5057170;28;20247;-84
2022/04/12 05:21:40;;;;;;;4.57;2.00;;;;;;;8.02;81.46;95859.66;5056702;28;20205;-83
2022/04/12 05:24:07;;;;;;;3.50;1.80;;;;;;;8.01;81.61;95857.22;5054463;28;20202;-83
2022/04/12 05:26:36;;;;;;;2.73;1.90;;;;;;;8.00;81.79;95853.69;5060825;28;20271;-84
2022/04/12 05:29:03;;;;;;;4.10;2.50;;;;;;;8.01;83.24;95860.72;5060938;28;20296;-83
2022/04/12 05:31:30;;;;;;;3.30;1.70;;;;;;;8.04;83.00;95854.06;5054744;28;20225;-84
2022/04/12 05:33:57;;;;;;;6.33;3.10;;;;;;;8.04;82.25;95868.34;5074888;28;20325;-84
2022/04/12 05:36:24;;;;;;;5.17;3.10;;;;;;;7.93;81.79;95858.34;5054442;28;20244;-85
2022/04/12 05:38:51;;;;;;;5.47;3.07;;;;;;;7.93;83.75;95867.22;5067040;28;20209;-84
2022/04/12 05:41:19;;;;;;;4.50;2.50;;;;;;;7.92;85.04;95865.56;5059180;28;20301;-85
2022/04/12 05:43:47;;;;;;;5.43;2.40;;;;;;;8.01;84.74;95865.28;5057954;28;20240;-84
2022/04/12 05:46:14;;;;;;;4.77;2.27;;;;;;;8.06;84.94;95863.56;5053983;28;20210;-84
2022/04/12 05:48:41;;;;;;;3.47;2.10;;;;;;;8.01;85.13;95868.78;5059358;28;20313;-84
2022/04/12 05:51:08;;;;;;;3.03;2.00;;;;;;;8.02;85.11;95869.59;5055939;28;20198;-83
2022/04/12 05:53:35;;;;;;;3.00;2.33;;;;;;;8.04;85.95;95873.72;5059763;28;20201;-84
2022/04/12 05:56:03;;;;;;;2.27;1.90;;;;;;;8.06;85.72;95871.63;5060754;28;20224;-84
2022/04/12 05:58:35;;;;;;;6.23;2.73;;;;;;;8.11;84.07;95865.56;5059593;28;20213;-83
2022/04/12 06:01:04;;;;;;;3.77;2.83;;;;;;;8.07;83.75;95859.00;5057670;28;20201;-83
2022/04/12 06:03:31;;;;;;;5.20;2.80;;;;;;;8.11;83.61;95870.94;5054710;28;20202;-83
2022/04/12 06:05:58;;;;;;;7.23;3.27;;;;;;;8.15;83.26;95880.22;5058651;28;20193;-83
2022/04/12 06:08:25;;;;;;;6.30;3.23;;;;;;;8.12;84.80;95878.78;5059684;28;20201;-83
2022/04/12 06:10:53;;;;;;;4.27;2.40;;;;;;;8.07;85.64;95880.53;5056209;28;20232;-83
2022/04/12 06:13:20;;;;;;;4.30;2.40;;;;;;;8.09;85.48;95889.97;5059434;28;20212;-83
2022/04/12 06:15:47;;;;;;;4.00;2.33;;;;;;;8.11;86.28;95898.66;5057651;28;20581;-83
2022/04/12 06:18:15;;;;;;;3.00;2.50;;;;;;;8.20;85.87;95896.47;5055974;28;20297;-83
2022/04/12 06:20:42;;;;;;;7.83;3.10;;;;;;;8.21;85.88;95896.25;5066272;28;20229;-83
2022/04/12 06:23:10;;;;;;;5.13;3.07;;;;;;;8.29;84.70;95901.31;5062432;28;20290;-83
2022/04/12 06:25:37;;;;;;;4.70;2.97;;;;;;;8.23;83.97;95899.56;5062246;28;20201;-83
2022/04/12 06:28:07;;;;;;;7.87;2.97;;;;;;;8.24;84.14;95903.88;5050964;28;20305;-83
2022/04/12 06:30:34;;;;;;;6.63;2.83;;;;;;;8.23;84.55;95899.56;5046589;28;20207;-84
2022/04/12 06:33:01;;;;;;;8.03;3.27;;;;;;;8.28;84.58;95898.84;5074784;28;20237;-83
2022/04/12 06:35:30;;;;;;;8.60;3.37;;;;;;;8.16;84.90;95898.00;5072782;28;20225;-83
2022/04/12 06:37:57;;;;;;;7.30;3.37;;;;;;;8.04;86.52;95903.28;5056074;28;20201;-83
2022/04/12 06:40:25;;;;;;;8.40;3.40;;;;;;;8.11;87.50;95905.91;5063223;28;20217;-83
2022/04/12 06:42:53;;;;;;;6.10;3.40;;;;;;;8.11;87.06;95916.66;5061859;28;20267;-83
2022/04/12 06:45:20;;;;;;;14.40;3.50;;;;;;;8.10;87.35;95902.38;5059332;28;20287;-83
2022/04/12 06:47:54;;;;;;;8.43;3.23;;;;;;;8.19;87.68;95905.59;5061998;28;20213;-84
2022/04/12 06:50:22;;;;;;;21.10;4.93;;;;;;;8.24;86.89;95914.66;5059127;28;20214;-83
2022/04/12 06:52:51;;;;;;;12.17;4.00;;;;;;;8.26;86.21;95907.16;5051769;28;20202;-83
2022/04/12 06:55:18;;;;;;;17.60;4.50;;;;;;;8.33;86.85;95912.50;5055556;28;20641;-83
2022/04/12 06:57:46;;;;;;;15.37;5.03;;;;;;;8.41;86.36;95917.56;5051468;28;20205;-83
2022/04/12 07:00:14;;;;;;;14.10;4.13;;;;;;;8.42;86.21;95907.63;5054510;28;20229;-83
2022/04/12 07:02:41;;;;;;;12.17;3.97;;;;;;;8.49;86.20;95895.72;5051871;28;20199;-83
2022/04/12 07:05:10;;;;;;;11.27;3.77;;;;;;;8.49;83.80;95895.72;5054330;28;20207;-83
2022/04/12 07:07:37;;;;;;;8.20;3.97;;;;;;;8.50;83.78;95897.38;5052061;28;20282;-82
2022/04/12 07:10:08;;;;;;;8.23;4.37;;;;;;;8.49;84.35;95889.50;5054565;28;20285;-83
2022/04/12 07:12:36;;;;;;;7.13;4.10;;;;;;;8.54;85.14;95906.59;5052176;28;20213;-83
2022/04/12 07:15:03;;;;;;;7.60;3.70;;;;;;;8.51;85.14;95893.59;5058253;28;20225;-82
2022/04/12 07:17:30;;;;;;;5.87;4.03;;;;;;;8.56;85.22;95890.25;5053849;28;20213;-83
2022/04/12 07:19:57;;;;;;;5.27;3.53;;;;;;;8.68;85.28;95894.59;5057038;28;20288;-83
2022/04/12 07:22:24;;;;;;;15.30;4.07;;;;;;;8.75;85.42;95882.94;5055532;28;20224;-83
2022/04/12 07:24:51;;;;;;;5.47;3.40;;;;;;;8.88;84.90;95883.53;5051484;28;20209;-83
2022/04/12 07:27:20;;;;;;;5.03;3.70;;;;;;;8.95;83.83;95870.78;5057933;28;20224;-83
2022/04/12 07:29:47;;;;;;;9.33;4.50;;;;;;;9.00;82.98;95870.13;5051766;28;20217;-82
2022/04/12 07:32:14;;;;;;;8.07;3.20;;;;;;;9.04;81.78;95858.63;5055830;28;20202;-83
2022/04/12 07:34:42;;;;;;;6.97;3.70;;;;;;;9.07;81.58;95855.47;5058763;28;20288;-83
2022/04/12 07:37:09;;;;;;;5.57;3.63;;;;;;;9.11;81.64;95851.25;5061980;28;20229;-83
2022/04/12 07:39:37;;;;;;;7.07;3.40;;;;;;;9.27;81.13;95865.91;5065126;28;20205;-82
2022/04/12 07:42:05;;;;;;;6.97;3.87;;;;;;;9.29;81.25;95858.41;5073358;28;20208;-83
2022/04/12 07:44:34;;;;;;;5.63;3.43;;;;;;;9.28;80.47;95854.06;5070690;28;20217;-83
2022/04/12 07:47:01;;;;;;;5.77;3.60;;;;;;;9.41;82.04;95861.13;5058864;28;20201;-83
2022/04/12 07:49:28;;;;;;;4.60;2.90;;;;;;;9.56;83.11;95858.75;5068454;28;20210;-83
2022/04/12 07:51:55;;;;;;;6.70;2.73;;;;;;;9.55;85.03;95857.13;5060760;28;20201;-84
2022/04/12 07:54:23;;;;;;;5.70;2.47;;;;;;;9.64;84.98;95861.09;5062252;28;20220;-83
2022/04/12 07:56:50;;;;;;;5.93;2.67;;;;;;;9.75;85.39;95835.19;5057728;28;20226;-83
2022/04/12 07:59:17;;;;;;;4.40;2.90;;;;;;;10.16;83.84;95843.03;5058215;28;20205;-84
2022/04/12 08:01:45;;;;;;;3.73;2.23;;;;;;;10.73;77.87;95842.22;5060045;28;20234;-83
2022/04/12 08:04:12;;;;;;;4.40;2.27;;;;;;;11.27;72.46;95844.22;5064738;28;20213;-83
2022/04/12 08:06:39;;;;;;;6.00;2.50;;;;;;;11.76;67.67;95849.84;5060163;28;20214;-83
2022/04/12 08:09:07;;;;;;;3.40;2.43;;;;;;;12.13;67.37;95848.16;5060142;28;20204;-83
2022/04/12 08:11:34;;;;;;;6.53;2.90;;;;;;;12.45;68.75;95852.84;5059258;28;20210;-84
2022/04/12 08:14:02;;;;;;;8.67;2.60;;;;;;;12.75;66.69;95850.50;5055099;28;20203;-83
2022/04/12 08:16:29;;;;;;;12.13;3.10;;;;;;;13.06;63.41;95862.41;5079455;28;20315;-84
2022/04/12 08:18:57;;;;;;;7.17;2.10;;;;;;;13.17;60.70;95857.94;5061134;28;20220;-83
2022/04/12 08:21:32;;;;;;;8.47;2.30;;;;;;;13.24;58.45;95850.41;5060636;28;20292;-83
2022/04/12 08:23:59;;;;;;;3.80;2.13;;;;;;;13.20;58.14;95852.81;5062829;28;20209;-83
2022/04/12 08:26:27;;;;;;;3.50;2.27;;;;;;;13.30;58.44;95846.66;5061593;28;20206;-83
2022/04/12 08:28:54;;;;;;;4.70;2.73;;;;;;;13.39;59.39;95847.81;5053785;28;20278;-83
2022/04/12 08:31:21;;;;;;;6.83;2.93;;;;;;;13.74;59.41;95849.13;5061509;28;20285;-84
2022/04/12 08:33:48;;;;;;;6.03;3.43;;;;;;;14.07;58.43;95846.06;5062181;28;20221;-83
2022/04/12 08:36:20;;;;;;;6.27;2.90;;;;;;;14.30;58.01;95847.50;5058465;28;20222;-84
2022/04/12 08:38:49;;;;;;;7.40;3.10;;;;;;;14.66;57.61;95853.91;5057945;28;20207;-84
2022/04/12 08:41:16;;;;;;;4.00;2.90;;;;;;;14.52;57.29;95841.94;5054249;28;20316;-83
2022/04/12 08:43:45;;;;;;;8.07;3.17;;;;;;;14.46;59.97;95853.88;5062906;28;20216;-83
2022/04/12 08:46:12;;;;;;;8.90;2.50;;;;;;;14.52;60.76;95852.78;5056138;28;20264;-83
2022/04/12 08:48:40;;;;;;;6.03;2.73;;;;;;;14.44;62.68;95845.97;5056827;28;20214;-84
2022/04/12 08:51:07;;;;;;;3.43;2.30;;;;;;;14.38;64.15;95853.28;5060998;28;20221;-84
2022/04/12 08:53:37;;;;;;;4.63;2.40;;;;;;;14.62;64.32;95856.38;5067172;28;20296;-83
2022/04/12 08:56:04;;;;;;;5.53;2.53;;;;;;;14.56;63.35;95846.53;5050327;28;20284;-84
2022/04/12 08:58:31;;;;;;;7.73;2.60;;;;;;;14.61;61.14;95849.28;5063612;28;20263;-84
2022/04/12 09:01:01;;;;;;;5.53;2.13;;;;;;;14.59;58.95;95845.19;5052692;28;20202;-84
2022/04/12 09:03:28;;;;;;;4.70;2.03;;;;;;;14.52;59.55;95850.06;5053890;28;20217;-84
2022/04/12 09:05:56;;;;;;;6.13;2.03;;;;;;;14.37;60.56;95861.69;5065660;28;20202;-84
2022/04/12 09:08:27;;;;;;;3.83;2.00;;;;;;;14.16;61.85;95865.38;5060338;28;20205;-84
2022/04/12 09:11:02;;;;;;;2.97;2.10;;;;;;;14.09;60.94;95860.19;5065302;28;20217;-83
2022/04/12 09:13:30;;;;;;;5.70;2.47;;;;;;;14.00;61.00;95867.19;5056801;28;20289;-84
2022/04/12 09:15:57;;;;;;;2.60;2.00;;;;;;;13.79;61.87;95871.69;5060388;28;20241;-83
2022/04/12 09:18:39;;;;;;;3.00;1.70;;;;;;;13.84;61.34;95868.19;5063608;28;20216;-83
2022/04/12 09:21:16;;;;;;;2.53;1.93;;;;;;;13.91;60.90;95868.78;5056143;28;20208;-83
2022/04/12 09:23:47;;;;;;;3.83;1.90;;;;;;;14.19;59.82;95873.00;5060899;28;20200;-83
2022/04/12 09:26:23;;;;;;;2.60;1.67;;;;;;;14.24;59.17;95876.53;5060159;28;20209;-83
2022/04/12 09:28:52;;;;;;;4.37;1.77;;;;;;;14.37;56.06;95872.53;5057830;28;20289;-83
2022/04/12 09:31:20;;;;;;;4.93;2.03;;;;;;;14.44;55.84;95869.59;5058459;28;20309;-83
2022/04/12 09:33:50;;;;;;;5.43;2.60;;;;;;;14.72;56.13;95869.13;5059087;28;20237;-83
2022/04/12 09:36:17;;;;;;;4.50;2.10;;;;;;;14.84;54.81;95866.19;5063411;28;20253;-82
2022/04/12 09:38:45;;;;;;;4.73;2.37;;;;;;;14.90;54.02;95871.34;5048865;28;20217;-82
2022/04/12 09:41:22;;;;;;;2.60;1.87;;;;;;;15.00;54.15;95871.38;5050252;28;20222;-82
2022/04/12 09:43:57;;;;;;;5.47;2.13;;;;;;;15.01;53.47;95873.00;5055150;28;20304;-82
2022/04/12 09:46:26;;;;;;;5.20;2.43;;;;;;;14.93;53.61;95872.72;5059139;28;20209;-82
2022/04/12 09:48:53;;;;;;;4.90;1.80;;;;;;;14.86;53.95;95870.28;5062442;28;20213;-83
2022/04/12 09:51:23;;;;;;;3.27;2.00;;;;;;;14.94;52.33;95877.91;5065551;28;20216;-83
2022/04/12 09:53:51;;;;;;;4.73;2.27;;;;;;;14.85;52.41;95857.75;5055521;28;20212;-83
2022/04/12 09:56:25;;;;;;;5.97;2.17;;;;;;;15.07;51.95;95866.50;5073400;28;20225;-82
2022/04/12 09:58:53;;;;;;;4.40;2.30;;;;;;;15.10;52.91;95862.41;5056633;28;20209;-83
2022/04/12 10:01:22;;;;;;;4.10;2.20;;;;;;;15.31;52.36;95866.78;5061998;28;20237;-83
2022/04/12 10:03:51;;;;;;;3.30;2.03;;;;;;;15.46;50.20;95866.78;5062082;28;20301;-82
2022/04/12 10:06:20;;;;;;;3.63;1.93;;;;;;;15.71;50.10;95860.53;5052764;28;20212;-83
2022/04/12 10:08:52;;;;;;;5.03;2.10;;;;;;;15.83;49.55;95861.06;5061525;28;20209;-83
2022/04/12 10:11:21;;;;;;;3.43;1.80;;;;;;;15.92;49.51;95855.06;5069294;28;20240;-82
2022/04/12 10:13:50;;;;;;;4.30;2.43;;;;;;;16.11;49.58;95865.09;5062937;28;20206;-83
2022/04/12 10:16:19;;;;;;;2.83;2.20;;;;;;;16.24;48.32;95855.53;5063670;28;20321;-83
2022/04/12 10:18:47;;;;;;;2.43;1.80;;;;;;;16.44;46.36;95846.44;5058456;28;20201;-83
2022/04/12 10:21:15;;;;;;;2.93;1.93;;;;;;;16.58;48.11;95853.75;5056609;28;20202;-84
2022/04/12 10:23:45;;;;;;;3.50;2.07;;;;;;;16.75;47.09;95847.16;5060376;28;20214;-83
2022/04/12 10:26:13;;;;;;;2.17;1.63;;;;;;;16.89;45.27;95846.25;5064009;28;20214;-84
2022/04/12 10:28:41;;;;;;;4.07;2.10;;;;;;;17.12;44.83;95844.72;5065369;28;20288;-83
2022/04/12 10:31:24;;;;;;;3.37;1.70;;;;;;;17.13;43.86;95846.34;5052271;28;20213;-84
2022/04/12 10:33:52;;;;;;;3.70;1.63;;;;;;;17.33;41.70;95854.41;5055665;28;20201;-84
2022/04/12 10:36:20;;;;;;;5.13;1.80;;;;;;;17.44;43.69;95840.66;5058851;28;20231;-84
2022/04/12 10:38:47;;;;;;;3.40;1.40;;;;;;;17.79;41.83;95840.34;5055990;28;20201;-84
2022/04/12 10:41:17;;;;;;;2.10;1.57;;;;;;;17.95;41.35;95841.81;5060381;28;20259;-84
2022/04/12 10:43:44;;;;;;;3.00;1.70;;;;;;;17.93;42.34;95824.94;5054560;28;20205;-84
2022/04/12 10:46:15;;;;;;;2.07;1.53;;;;;;;18.08;42.60;95830.22;5056898;28;20297;-84
2022/04/12 10:48:43;;;;;;;2.33;1.50;;;;;;;18.28;41.15;95833.84;5059344;28;20213;-83
2022/04/12 10:51:10;;;;;;;2.90;2.00;;;;;;;18.46;40.36;95824.84;5063217;28;20655;-83
2022/04/12 10:53:57;;;;;;;1.97;1.67;;;;;;;18.45;40.12;95828.72;5057394;28;20209;-83
2022/04/12 10:56:26;;;;;;;3.50;2.40;;;;;;;18.63;39.30;95816.22;5050759;28;20224;-83
2022/04/12 10:58:53;;;;;;;4.17;1.90;;;;;;;18.87;40.15;95814.22;5055427;28;20197;-83
2022/04/12 11:01:33;;;;;;;3.30;1.80;;;;;;;18.94;39.03;95809.19;5062035;28;20212;-83
2022/04/12 11:04:03;;;;;;;4.03;1.70;;;;;;;18.97;38.60;95807.81;5061330;28;20294;-83
2022/04/12 11:06:32;;;;;;;3.20;2.10;;;;;;;19.09;38.34;95813.63;5060082;28;20205;-83
2022/04/12 11:09:10;;;;;;;3.38;2.10;;;;;;;19.11;37.76;95811.41;5054189;28;20290;-83
2022/04/12 11:11:40;;;;;;;2.25;1.63;;;;;;;19.05;38.51;95810.69;5068803;28;20206;-83
2022/04/12 11:14:25;;;;;;;2.93;1.83;;;;;;;19.20;37.06;95804.97;5062765;28;20202;-83
2022/04/12 11:16:57;;;;;;;2.83;1.75;;;;;;;19.30;35.08;95798.53;5063395;28;20332;-83
2022/04/12 11:19:26;;;;;;;3.10;1.70;;;;;;;19.41;36.85;95801.88;5063605;28;20211;-83
2022/04/12 11:22:00;;;;;;;4.90;1.80;;;;;;;19.27;38.12;95793.63;5061475;28;20207;-83
2022/04/12 11:24:28;;;;;;;2.35;1.70;;;;;;;19.16;37.72;95798.44;5067031;28;20193;-83
2022/04/12 11:27:06;;;;;;;2.03;1.67;;;;;;;19.20;37.04;95801.41;5054048;28;20285;-83
2022/04/12 11:29:34;;;;;;;3.13;1.70;;;;;;;19.24;38.41;95799.69;5060664;28;20256;-83
2022/04/12 11:32:02;;;;;;;7.50;5.30;;;;;;;19.36;38.17;95797.31;5067070;28;20281;-84
2022/04/12 11:34:32;;;;;;;3.55;1.83;;;;;;;19.54;37.29;95799.22;5064662;28;20217;-83
2022/04/12 11:37:01;;;;;;;3.03;2.08;;;;;;;19.72;38.22;95805.78;5052460;28;20287;-84
2022/04/12 11:39:30;;;;;;;2.17;1.60;;;;;;;19.89;37.42;95796.97;5066355;28;20229;-83
2022/04/12 11:41:58;;;;;;;3.30;1.92;;;;;;;19.91;36.22;95791.97;5075951;28;20281;-83
2022/04/12 11:44:25;;;;;;;3.58;1.88;;;;;;;19.91;37.08;95791.97;5066408;28;20206;-84